createdAt,value
2018-10-01T00:00:04.898Z,93.57
2018-10-01T00:02:36.192Z,93.48
2018-10-01T00:05:07.172Z,92.43
2018-10-01T00:07:37.156Z,93.43
2018-10-01T00:10:07.411Z,93.27
2018-10-01T00:12:38.674Z,93.53
2018-10-01T00:15:09.364Z,92.74
2018-10-01T00:17:40.196Z,93.31
2018-10-01T00:20:15.936Z,93.62
2018-10-01T00:22:49.474Z,93.72
2018-10-01T00:25:19.858Z,93.67
2018-10-01T00:27:50.351Z,94.14
2018-10-01T00:30:21.633Z,94.41
2018-10-01T00:32:54.314Z,94.54
2018-10-01T00:35:24.198Z,93.95
2018-10-01T00:37:55.786Z,94.29
2018-10-01T00:40:26.870Z,93.55
2018-10-01T00:42:58.185Z,93.88
2018-10-01T00:45:28.346Z,93.70
2018-10-01T00:48:00.178Z,94.02
2018-10-01T00:50:32.215Z,94.01
2018-10-01T00:53:02.773Z,94.31
2018-10-01T00:55:34.112Z,94.23
2018-10-01T00:58:04.632Z,94.27
2018-10-01T01:00:35.149Z,94.19
2018-10-01T01:03:05.470Z,94.54
2018-10-01T01:05:35.583Z,93.81
2018-10-01T01:08:06.428Z,93.68
2018-10-01T01:10:36.659Z,93.75
2018-10-01T01:13:07.916Z,94.57
2018-10-01T01:15:38.323Z,94.40
2018-10-01T01:18:08.447Z,94.44
2018-10-01T01:20:38.972Z,94.07
2018-10-01T01:23:10.030Z,94.12
2018-10-01T01:25:41.671Z,93.65
2018-10-01T01:28:12.447Z,93.49
2018-10-01T01:30:42.990Z,93.04
2018-10-01T01:33:14.506Z,93.66
2018-10-01T01:35:44.730Z,93.01
2018-10-01T01:38:16.098Z,93.69
2018-10-01T01:40:46.692Z,92.55
2018-10-01T01:43:17.022Z,92.57
2018-10-01T01:45:47.512Z,92.55
2018-10-01T01:48:17.559Z,92.92
2018-10-01T01:53:36.645Z,92.55
2018-10-01T01:56:06.857Z,93.27
2018-10-01T01:58:37.054Z,92.51
2018-10-01T02:01:07.307Z,92.33
2018-10-01T02:03:37.806Z,93.35
2018-10-01T02:06:08.156Z,92.76
2018-10-01T02:08:39.514Z,93.03
2018-10-01T02:11:09.660Z,92.54
2018-10-01T02:13:39.343Z,92.63
2018-10-01T02:16:09.971Z,91.87
2018-10-01T02:18:40.565Z,91.48
2018-10-01T02:21:10.992Z,90.53
2018-10-01T02:23:40.967Z,91.11
2018-10-01T02:26:13.064Z,90.12
2018-10-01T02:28:43.234Z,89.83
2018-10-01T02:31:14.451Z,89.44
2018-10-01T02:33:44.843Z,89.92
2018-10-01T02:36:15.847Z,90.67
2018-10-01T02:38:45.903Z,90.30
2018-10-01T02:41:15.876Z,89.72
2018-10-01T02:43:46.064Z,91.23
2018-10-01T02:46:16.430Z,90.39
2018-10-01T02:48:46.181Z,90.69
2018-10-01T02:51:16.200Z,89.32
2018-10-01T02:53:51.455Z,89.86
2018-10-01T02:56:21.677Z,89.62
2018-10-01T02:58:52.602Z,90.24
2018-10-01T03:01:22.967Z,90.32
2018-10-01T03:03:53.154Z,89.73
2018-10-01T03:06:24.125Z,90.42
2018-10-01T03:08:56.851Z,90.82
2018-10-01T03:11:28.159Z,90.92
2018-10-01T03:13:58.481Z,91.53
2018-10-01T03:16:28.756Z,92.07
2018-10-01T03:18:58.801Z,91.72
2018-10-01T03:21:30.826Z,91.88
2018-10-01T03:24:01.602Z,92.42
2018-10-01T03:26:31.630Z,92.56
2018-10-01T03:29:01.904Z,93.67
2018-10-01T03:31:32.183Z,94.16
2018-10-01T03:34:03.234Z,94.24
2018-10-01T03:36:33.497Z,94.76
2018-10-01T03:39:06.902Z,95.44
2018-10-01T03:41:37.688Z,95.48
2018-10-01T03:44:09.029Z,95.40
2018-10-01T03:46:39.610Z,95.90
2018-10-01T03:49:11.539Z,96.11
2018-10-01T03:51:42.193Z,95.30
2018-10-01T03:54:12.895Z,95.17
2018-10-01T03:56:43.487Z,95.25
2018-10-01T03:59:16.208Z,95.39
2018-10-01T04:01:50.508Z,95.56
2018-10-01T04:04:22.730Z,95.84
2018-10-01T04:06:55.305Z,95.89
2018-10-01T04:09:26.097Z,95.56
2018-10-01T04:11:57.539Z,95.30
2018-10-01T04:14:28.068Z,94.33
2018-10-01T04:16:59.667Z,94.98
2018-10-01T04:19:30.299Z,94.86
2018-10-01T04:22:03.500Z,95.56
2018-10-01T04:24:34.739Z,94.49
2018-10-01T04:27:05.456Z,95.00
2018-10-01T04:29:43.413Z,94.96
2018-10-01T04:32:14.830Z,94.63
2018-10-01T04:34:45.828Z,94.87
2018-10-01T04:37:16.718Z,94.48
2018-10-01T04:39:49.152Z,94.33
2018-10-01T04:42:19.481Z,94.62
2018-10-01T04:44:51.585Z,94.38
2018-10-01T04:47:22.002Z,93.57
2018-10-01T04:49:53.604Z,94.11
2018-10-01T04:52:24.158Z,93.47
2018-10-01T04:54:58.327Z,94.17
2018-10-01T04:57:29.028Z,93.95
2018-10-01T04:59:59.362Z,93.47
2018-10-01T05:02:29.980Z,94.17
2018-10-01T05:05:01.205Z,93.00
2018-10-01T05:07:35.823Z,92.85
2018-10-01T05:10:06.767Z,92.48
2018-10-01T05:12:38.354Z,93.51
2018-10-01T05:15:12.475Z,93.63
2018-10-01T05:17:42.971Z,94.25
2018-10-01T05:20:13.946Z,94.11
2018-10-01T05:22:47.109Z,93.91
2018-10-01T05:25:17.832Z,94.56
2018-10-01T05:27:48.257Z,93.72
2018-10-01T05:30:19.776Z,94.40
2018-10-01T05:32:51.606Z,94.19
2018-10-01T05:35:23.328Z,94.20
2018-10-01T05:37:55.221Z,93.86
2018-10-01T05:40:28.093Z,94.18
2018-10-01T05:42:58.401Z,94.27
2018-10-01T05:45:28.714Z,94.42
2018-10-01T05:48:00.267Z,93.92
2018-10-01T05:50:31.314Z,94.10
2018-10-01T05:53:02.463Z,94.17
2018-10-01T05:55:33.600Z,93.81
2018-10-01T05:58:05.556Z,93.93
2018-10-01T06:00:36.810Z,93.97
2018-10-01T06:03:07.574Z,93.72
2018-10-01T06:05:41.586Z,94.07
2018-10-01T06:08:13.656Z,93.88
2018-10-01T06:10:44.191Z,93.35
2018-10-01T06:13:16.140Z,93.27
2018-10-01T06:15:47.662Z,92.58
2018-10-01T06:21:03.057Z,91.60
2018-10-01T06:23:34.217Z,91.41
2018-10-01T06:26:04.938Z,91.51
2018-10-01T06:28:36.082Z,91.25
2018-10-01T06:31:07.365Z,91.89
2018-10-01T06:33:38.798Z,91.26
2018-10-01T06:36:11.157Z,90.86
2018-10-01T06:38:42.557Z,91.40
2018-10-01T06:41:13.700Z,91.25
2018-10-01T06:43:44.123Z,90.73
2018-10-01T06:46:14.316Z,91.56
2018-10-01T06:48:46.205Z,90.54
2018-10-01T06:51:17.661Z,90.50
2018-10-01T06:53:48.276Z,90.35
2018-10-01T06:56:24.916Z,90.02
2018-10-01T06:58:56.469Z,89.47
2018-10-01T07:04:02.637Z,87.59
2018-10-01T07:06:33.232Z,86.36
2018-10-01T07:11:49.174Z,100.00
2018-10-01T07:14:24.746Z,100.00
2018-10-01T07:16:58.009Z,100.00
2018-10-01T07:19:31.017Z,100.00
2018-10-01T07:22:05.370Z,100.00
2018-10-01T07:27:28.367Z,100.00
2018-10-01T07:30:00.360Z,100.00
2018-10-01T07:32:31.136Z,100.00
2018-10-01T07:35:01.956Z,100.00
2018-10-01T07:37:32.112Z,100.00
2018-10-01T07:40:02.398Z,100.00
2018-10-01T07:42:33.737Z,100.00
2018-10-01T07:45:06.710Z,100.00
2018-10-01T07:47:41.336Z,100.00
2018-10-01T07:50:11.476Z,100.00
2018-10-01T07:52:47.052Z,100.00
2018-10-01T11:19:59.354Z,69.50
2018-10-01T11:22:31.423Z,70.07
2018-10-01T11:25:03.689Z,69.93
2018-10-01T11:27:38.862Z,68.16
2018-10-01T11:30:10.893Z,65.69
2018-10-01T11:32:40.931Z,63.48
2018-10-01T11:35:20.168Z,63.68
2018-10-01T11:37:50.625Z,64.70
2018-10-01T11:40:25.879Z,64.93
2018-10-01T11:42:56.495Z,63.44
2018-10-01T11:45:27.809Z,64.68
2018-10-01T11:47:58.332Z,65.43
2018-10-01T11:50:28.555Z,67.42
2018-10-01T11:53:06.224Z,69.08
2018-10-01T11:55:36.777Z,68.23
2018-10-01T12:01:01.564Z,66.82
2018-10-01T12:03:33.857Z,67.73
2018-10-01T12:06:04.020Z,67.80
2018-10-01T12:08:39.608Z,67.74
2018-10-01T12:11:10.725Z,66.83
2018-10-01T12:13:45.078Z,67.58
2018-10-01T12:16:20.044Z,68.79
2018-10-01T12:18:50.601Z,67.80
2018-10-01T12:21:23.889Z,67.62
2018-10-01T12:23:59.203Z,68.00
2018-10-01T12:26:30.295Z,68.38
2018-10-01T12:29:00.423Z,66.87
2018-10-01T12:31:32.079Z,68.43
2018-10-01T12:34:05.379Z,68.21
2018-10-01T12:36:35.667Z,68.41
2018-10-01T12:39:08.528Z,67.47
2018-10-01T12:41:39.178Z,69.10
2018-10-01T12:44:11.081Z,69.10
2018-10-01T12:46:42.969Z,68.35
2018-10-01T12:49:14.801Z,69.31
2018-10-01T12:51:46.223Z,69.85
2018-10-01T12:54:16.916Z,71.06
2018-10-01T12:56:48.814Z,70.48
2018-10-01T12:59:24.841Z,70.82
2018-10-01T13:01:55.770Z,71.55
2018-10-01T13:04:26.487Z,69.15
2018-10-01T13:07:00.572Z,67.82
2018-10-01T13:09:31.709Z,68.45
2018-10-01T13:12:07.968Z,67.86
2018-10-01T13:14:40.683Z,67.65
2018-10-01T13:17:17.066Z,67.52
2018-10-01T13:19:47.933Z,67.03
2018-10-01T13:22:26.301Z,66.25
2018-10-01T13:24:58.340Z,64.50
2018-10-01T13:27:29.025Z,62.83
2018-10-01T13:29:59.671Z,61.19
2018-10-01T13:32:31.455Z,61.68
2018-10-01T13:35:04.671Z,62.78
2018-10-01T13:37:38.998Z,59.62
2018-10-01T13:40:10.309Z,60.63
2018-10-01T13:42:43.524Z,59.64
2018-10-01T13:45:20.341Z,59.56
2018-10-01T13:48:11.319Z,60.50
2018-10-01T13:50:53.608Z,60.90
2018-10-01T13:53:25.320Z,63.21
2018-10-01T13:55:58.052Z,62.89
2018-10-01T13:58:29.278Z,63.86
2018-10-01T14:01:06.600Z,65.30
2018-10-01T14:03:39.466Z,64.68
2018-10-01T14:12:21.822Z,64.85
2018-10-01T14:14:56.298Z,64.07
2018-10-01T14:20:30.073Z,62.01
2018-10-01T14:23:32.462Z,62.37
2018-10-01T14:26:17.036Z,62.68
2018-10-01T14:28:57.308Z,62.70
2018-10-01T14:31:45.601Z,61.90
2018-10-01T14:34:53.761Z,58.10
2018-10-01T14:37:25.248Z,59.39
2018-10-01T14:39:57.829Z,60.76
2018-10-01T14:42:31.156Z,60.12
2018-10-01T14:45:10.538Z,56.72
2018-10-01T14:47:42.881Z,57.65
2018-10-01T14:50:16.033Z,58.52
2018-10-01T14:52:48.757Z,58.78
2018-10-01T15:09:58.861Z,59.71
2018-10-01T15:12:38.956Z,59.40
2018-10-01T15:18:05.334Z,61.51
2018-10-01T15:20:38.406Z,60.84
2018-10-01T15:23:10.163Z,61.05
2018-10-01T15:25:40.801Z,61.26
2018-10-01T15:28:14.019Z,62.56
2018-10-01T15:33:30.504Z,63.05
2018-10-01T15:36:02.810Z,63.12
2018-10-01T15:38:38.489Z,62.44
2018-10-01T15:41:10.384Z,63.66
2018-10-01T15:43:44.649Z,64.61
2018-10-01T15:46:15.041Z,64.58
2018-10-01T15:48:47.254Z,64.42
2018-10-01T15:51:18.006Z,64.42
2018-10-01T15:53:48.919Z,64.01
2018-10-01T15:56:23.917Z,62.94
2018-10-01T15:58:55.606Z,63.35
2018-10-01T16:01:28.371Z,63.97
2018-10-01T16:04:02.062Z,64.51
2018-10-01T16:06:32.852Z,65.28
2018-10-01T16:09:03.148Z,66.16
2018-10-01T16:11:33.563Z,66.13
2018-10-01T16:14:04.843Z,66.42
2018-10-01T16:16:36.463Z,67.29
2018-10-01T16:19:08.403Z,67.38
2018-10-01T16:21:39.661Z,67.14
2018-10-01T16:24:10.147Z,67.71
2018-10-01T16:26:42.753Z,68.05
2018-10-01T16:29:13.629Z,70.69
2018-10-01T16:31:43.776Z,72.99
2018-10-01T16:34:16.076Z,74.61
2018-10-01T16:36:53.856Z,75.08
2018-10-01T16:39:25.767Z,75.94
2018-10-01T16:41:58.648Z,75.84
2018-10-01T16:44:30.355Z,75.90
2018-10-01T16:47:04.891Z,76.12
2018-10-01T16:49:38.660Z,75.60
2018-10-01T16:52:14.494Z,76.27
2018-10-01T16:54:46.741Z,76.27
2018-10-01T16:57:22.092Z,75.20
2018-10-01T16:59:57.239Z,76.96
2018-10-01T17:02:31.850Z,78.73
2018-10-01T17:05:10.624Z,76.72
2018-10-01T17:07:44.811Z,76.56
2018-10-01T17:10:18.767Z,77.00
2018-10-01T17:12:53.668Z,76.93
2018-10-01T17:15:25.068Z,76.29
2018-10-01T17:17:59.286Z,75.78
2018-10-01T17:20:34.628Z,75.61
2018-10-01T17:23:15.267Z,76.17
2018-10-01T17:25:54.220Z,76.51
2018-10-01T17:28:33.770Z,76.73
2018-10-01T17:34:38.200Z,76.22
2018-10-01T17:37:26.354Z,76.91
2018-10-01T17:39:59.506Z,77.09
2018-10-01T17:42:32.819Z,77.68
2018-10-01T17:48:28.887Z,79.30
2018-10-01T17:51:01.444Z,78.63
2018-10-01T17:53:35.126Z,78.76
2018-10-01T17:56:09.292Z,78.76
2018-10-01T17:58:46.188Z,78.89
2018-10-01T18:01:18.644Z,79.03
2018-10-01T18:03:50.737Z,78.73
2018-10-01T18:06:24.406Z,79.63
2018-10-01T18:08:58.059Z,79.90
2018-10-01T18:11:44.692Z,79.20
2018-10-01T18:14:23.167Z,79.65
2018-10-01T18:16:59.904Z,80.21
2018-10-01T18:19:37.173Z,80.11
2018-10-01T18:22:13.572Z,80.76
2018-10-01T18:24:45.427Z,80.48
2018-10-01T18:27:17.063Z,80.63
2018-10-01T18:29:54.067Z,80.91
2018-10-01T18:32:30.215Z,80.52
2018-10-01T18:35:08.298Z,81.03
2018-10-01T18:37:47.478Z,81.53
2018-10-01T18:40:19.035Z,82.01
2018-10-01T18:42:54.024Z,81.46
2018-10-01T18:45:29.403Z,81.85
2018-10-01T18:51:28.257Z,81.71
2018-10-01T18:54:01.327Z,82.43
2018-10-01T18:56:32.327Z,81.83
2018-10-01T18:59:05.137Z,81.97
2018-10-01T19:01:38.630Z,81.60
2018-10-01T19:04:10.428Z,81.33
2018-10-01T19:06:43.854Z,81.84
2018-10-01T19:09:16.936Z,80.98
2018-10-01T19:11:50.660Z,81.14
2018-10-01T19:14:24.163Z,80.81
2018-10-01T19:16:58.578Z,81.05
2018-10-01T19:19:40.832Z,80.50
2018-10-01T19:22:41.375Z,81.17
2018-10-01T19:25:22.786Z,80.75
2018-10-01T19:28:00.694Z,81.51
2018-10-01T19:30:41.075Z,80.73
2018-10-01T19:33:30.832Z,80.48
2018-10-01T19:36:11.752Z,80.13
2018-10-01T19:38:44.835Z,81.24
2018-10-01T19:44:26.483Z,80.30
2018-10-01T19:46:59.288Z,80.35
2018-10-01T19:49:40.758Z,80.32
2018-10-01T19:52:21.008Z,80.70
2018-10-01T19:57:52.828Z,80.98
2018-10-01T20:00:37.053Z,80.56
2018-10-01T20:06:18.186Z,80.69
2018-10-01T20:09:02.178Z,81.91
2018-10-01T20:17:46.157Z,80.51
2018-10-01T20:20:25.407Z,81.21
2018-10-01T20:28:44.022Z,81.12
2018-10-01T20:31:25.231Z,80.92
2018-10-01T20:34:06.159Z,81.76
2018-10-01T20:36:46.323Z,81.49
2018-10-01T20:39:23.099Z,81.78
2018-10-01T20:42:02.894Z,81.79
2018-10-01T20:44:41.802Z,82.24
2018-10-01T20:47:19.830Z,82.14
2018-10-01T20:49:56.973Z,82.21
2018-10-01T20:52:38.087Z,82.25
2018-10-01T20:55:17.686Z,81.54
2018-10-01T20:57:55.612Z,81.86
2018-10-01T21:00:37.655Z,81.70
2018-10-01T21:03:18.384Z,81.50
2018-10-01T21:06:00.393Z,81.48
2018-10-01T21:08:46.427Z,82.08
2018-10-01T21:11:22.274Z,81.32
2018-10-01T21:13:56.586Z,80.40
2018-10-01T21:16:36.527Z,81.20
2018-10-01T21:19:09.585Z,81.54
2018-10-01T21:21:41.390Z,82.50
2018-10-01T21:24:14.491Z,82.14
2018-10-01T21:26:47.188Z,82.06
2018-10-01T21:29:19.117Z,81.53
2018-10-01T21:31:50.876Z,82.27
2018-10-01T21:34:23.150Z,82.35
2018-10-01T21:36:55.578Z,81.36
2018-10-01T21:41:39.387Z,81.79
2018-10-01T21:44:19.647Z,81.08
2018-10-01T21:47:05.534Z,80.16
2018-10-01T21:50:01.883Z,80.18
2018-10-01T21:52:41.444Z,80.88
2018-10-01T21:55:17.591Z,81.63
2018-10-01T21:58:02.718Z,81.29
2018-10-01T22:00:53.055Z,80.44
2018-10-01T22:03:28.175Z,80.51
2018-10-01T22:06:12.926Z,80.42
2018-10-01T22:08:53.187Z,79.68
2018-10-01T22:11:35.580Z,79.39
2018-10-01T22:14:14.627Z,79.78
2018-10-01T22:16:56.244Z,79.57
2018-10-01T22:19:32.801Z,80.38
2018-10-01T22:22:11.676Z,79.45
2018-10-01T22:24:50.538Z,80.45
2018-10-01T22:27:34.904Z,80.38
2018-10-01T22:30:12.178Z,79.80
2018-10-01T22:32:51.439Z,79.95
2018-10-01T22:35:24.549Z,80.34
2018-10-01T22:37:56.822Z,80.06
2018-10-01T22:40:29.493Z,79.51
2018-10-01T22:43:03.139Z,79.67
2018-10-01T22:45:35.512Z,79.60
2018-10-01T22:49:47.741Z,80.24
2018-10-01T22:52:23.486Z,81.20
2018-10-01T22:54:58.140Z,80.94
2018-10-01T22:57:38.581Z,81.39
2018-10-01T23:00:15.025Z,81.27
2018-10-01T23:02:48.951Z,81.82
2018-10-01T23:05:25.821Z,81.48
2018-10-01T23:07:58.912Z,81.27
2018-10-01T23:10:31.504Z,82.35
2018-10-01T23:13:03.020Z,82.60
2018-10-01T23:15:35.000Z,82.33
2018-10-01T23:18:06.756Z,81.83
2018-10-01T23:20:38.423Z,82.10
2018-10-01T23:23:10.169Z,83.68
2018-10-01T23:25:42.689Z,83.62
2018-10-01T23:28:14.607Z,82.54
2018-10-01T23:30:46.217Z,82.21
2018-10-01T23:33:16.506Z,82.45
2018-10-01T23:35:47.664Z,82.23
2018-10-01T23:38:19.682Z,81.86
2018-10-01T23:40:51.241Z,81.99
2018-10-01T23:43:23.038Z,83.43
2018-10-01T23:45:55.009Z,84.05
2018-10-01T23:48:29.964Z,84.04
2018-10-01T23:51:06.046Z,83.54
2018-10-01T23:53:37.245Z,82.55
2018-10-01T23:56:10.485Z,83.88
2018-10-01T23:58:41.827Z,82.79
